createdAt,value
2022-09-10T00:01:05.315Z,96.82
2022-09-10T00:04:10.773Z,96.75
2022-09-10T00:07:12.855Z,96.85
2022-09-10T00:10:14.418Z,96.76
2022-09-10T00:13:17.382Z,96.54
2022-09-10T00:16:19.345Z,96.53
2022-09-10T00:19:22.904Z,96.64
2022-09-10T00:22:24.539Z,96.42
2022-09-10T00:25:29.168Z,96.56
2022-09-10T00:28:30.765Z,96.82
2022-09-10T00:31:32.930Z,96.73
2022-09-10T00:34:39.411Z,96.68
2022-09-10T00:37:41.047Z,96.82
2022-09-10T00:40:45.837Z,96.93
2022-09-10T00:43:49.205Z,96.94
2022-09-10T00:46:51.675Z,96.91
2022-09-10T00:49:57.681Z,96.91
2022-09-10T00:53:01.226Z,97.08
2022-09-10T00:56:05.839Z,96.97
2022-09-10T00:59:10.088Z,96.85
2022-09-10T01:02:12.371Z,96.92
2022-09-10T01:05:17.595Z,96.87
2022-09-10T01:08:19.904Z,96.82
2022-09-10T01:11:38.164Z,96.98
2022-09-10T01:14:49.249Z,97.00
2022-09-10T01:17:57.805Z,96.95
2022-09-10T01:21:13.663Z,96.84
2022-09-10T01:24:35.161Z,97.12
2022-09-10T01:27:42.873Z,97.13
2022-09-10T01:30:48.025Z,97.17
2022-09-10T01:33:54.042Z,97.27
2022-09-10T01:36:59.498Z,97.29
2022-09-10T01:40:02.558Z,97.52
2022-09-10T01:43:07.260Z,97.49
2022-09-10T01:46:20.951Z,97.59
2022-09-10T01:49:27.824Z,97.61
2022-09-10T01:52:35.688Z,97.70
2022-09-10T01:55:42.496Z,97.65
2022-09-10T01:58:46.527Z,97.76
2022-09-10T02:01:50.804Z,97.86
2022-09-10T02:04:54.294Z,97.87
2022-09-10T02:07:59.257Z,97.95
2022-09-10T02:11:09.420Z,98.07
2022-09-10T02:14:14.291Z,98.04
2022-09-10T02:17:16.374Z,97.80
2022-09-10T02:20:19.964Z,97.81
2022-09-10T02:23:24.681Z,97.88
2022-09-10T02:26:27.867Z,97.90
2022-09-10T02:29:31.445Z,97.79
2022-09-10T02:32:33.099Z,97.85
2022-09-10T02:35:34.682Z,97.62
2022-09-10T02:38:36.500Z,97.71
2022-09-10T02:41:43.413Z,97.71
2022-09-10T02:44:47.215Z,97.88
2022-09-10T02:47:49.187Z,97.88
2022-09-10T02:50:50.853Z,97.86
2022-09-10T02:53:52.669Z,97.95
2022-09-10T02:56:54.558Z,97.95
2022-09-10T02:59:57.697Z,98.02
2022-09-10T03:03:02.906Z,98.10
2022-09-10T03:06:05.118Z,98.09
2022-09-10T03:09:06.837Z,98.29
2022-09-10T03:12:08.497Z,98.16
2022-09-10T03:15:12.824Z,98.30
2022-09-10T03:18:15.750Z,98.36
2022-09-10T03:21:18.633Z,98.39
2022-09-10T03:24:25.289Z,98.66
2022-09-10T03:27:26.942Z,98.67
2022-09-10T03:30:30.077Z,98.67
2022-09-10T03:33:32.164Z,98.70
2022-09-10T03:36:33.949Z,98.58
2022-09-10T03:39:35.754Z,98.50
2022-09-10T03:42:37.491Z,98.69
2022-09-10T03:45:40.522Z,98.58
2022-09-10T03:48:43.851Z,98.58
2022-09-10T03:51:45.739Z,98.62
2022-09-10T03:54:49.350Z,98.48
2022-09-10T03:57:51.127Z,98.39
2022-09-10T04:00:54.380Z,98.38
2022-09-10T04:03:56.844Z,98.50
2022-09-10T04:06:58.653Z,98.52
2022-09-10T04:10:00.350Z,98.41
2022-09-10T04:13:02.145Z,98.28
2022-09-10T04:16:05.646Z,98.14
2022-09-10T04:19:07.354Z,98.14
2022-09-10T04:22:09.239Z,98.12
2022-09-10T04:25:10.818Z,98.20
2022-09-10T04:28:12.613Z,98.15
2022-09-10T04:31:15.885Z,98.17
2022-09-10T04:34:17.746Z,98.16
2022-09-10T04:37:19.656Z,98.05
2022-09-10T04:40:21.303Z,98.20
2022-09-10T04:43:24.425Z,98.16
2022-09-10T04:46:27.493Z,98.24
2022-09-10T04:49:29.889Z,98.11
2022-09-10T04:52:31.686Z,98.17
2022-09-10T04:55:33.728Z,98.30
2022-09-10T04:58:38.706Z,98.39
2022-09-10T05:01:42.371Z,98.22
2022-09-10T05:04:44.223Z,98.31
2022-09-10T05:07:45.819Z,98.43
2022-09-10T05:10:47.847Z,98.45
2022-09-10T05:13:49.622Z,98.54
2022-09-10T05:16:52.767Z,98.43
2022-09-10T05:19:54.463Z,98.43
2022-09-10T05:22:56.340Z,98.64
2022-09-10T05:25:58.289Z,98.69
2022-09-10T05:29:00.622Z,98.84
2022-09-10T05:32:04.039Z,98.89
2022-09-10T05:35:06.356Z,98.79
2022-09-10T05:38:11.299Z,98.85
2022-09-10T05:41:13.615Z,98.84
2022-09-10T05:44:15.333Z,98.56
2022-09-10T05:47:18.694Z,98.75
2022-09-10T05:50:20.299Z,98.60
2022-09-10T05:53:21.981Z,98.67
2022-09-10T05:56:25.761Z,98.67
2022-09-10T05:59:27.357Z,98.45
2022-09-10T06:02:30.586Z,98.42
2022-09-10T06:05:32.409Z,98.45
2022-09-10T06:08:35.598Z,98.43
2022-09-10T06:11:38.734Z,98.49
2022-09-10T06:14:40.398Z,98.71
2022-09-10T06:17:43.406Z,98.83
2022-09-10T06:20:45.205Z,98.68
2022-09-10T06:23:47.137Z,98.43
2022-09-10T06:26:49.136Z,98.57
2022-09-10T06:29:51.423Z,98.12
2022-09-10T06:32:54.615Z,98.20
2022-09-10T06:35:56.729Z,97.84
2022-09-10T06:38:58.450Z,97.93
2022-09-10T06:42:00.455Z,98.03
2022-09-10T06:45:02.136Z,98.12
2022-09-10T06:51:26.910Z,97.81
2022-09-10T06:54:28.550Z,97.71
2022-09-10T06:57:30.342Z,97.79
2022-09-10T07:00:32.597Z,97.47
2022-09-10T07:03:36.273Z,97.61
2022-09-10T07:06:38.495Z,97.39
2022-09-10T07:09:40.135Z,97.60
2022-09-10T07:12:41.619Z,97.70
2022-09-10T07:15:45.412Z,97.10
2022-09-10T07:18:50.304Z,97.40
2022-09-10T07:21:52.149Z,96.62
2022-09-10T07:24:54.461Z,96.04
2022-09-10T07:27:56.113Z,96.17
2022-09-10T07:30:58.321Z,95.92
2022-09-10T07:34:03.060Z,95.77
2022-09-10T07:37:05.601Z,95.52
2022-09-10T07:40:07.913Z,95.27
2022-09-10T07:43:09.593Z,95.39
2022-09-10T07:46:12.727Z,95.59
2022-09-10T07:49:15.566Z,95.17
2022-09-10T07:52:18.747Z,95.03
2022-09-10T07:55:20.753Z,95.23
2022-09-10T07:58:22.429Z,95.06
2022-09-10T08:01:24.072Z,95.19
2022-09-10T08:04:33.440Z,95.37
2022-09-10T08:07:38.081Z,95.27
2022-09-10T08:10:39.803Z,95.51
2022-09-10T08:13:42.343Z,95.82
2022-09-10T08:16:44.698Z,95.00
2022-09-10T08:19:49.212Z,94.36
2022-09-10T08:22:50.760Z,94.28
2022-09-10T08:25:57.609Z,93.83
2022-09-10T08:28:59.308Z,93.68
2022-09-10T08:32:01.181Z,93.78
2022-09-10T08:35:05.031Z,93.45
2022-09-10T08:38:06.663Z,93.44
2022-09-10T08:41:11.348Z,93.59
2022-09-10T08:44:17.693Z,93.72
2022-09-10T08:47:22.493Z,93.47
2022-09-10T08:50:28.975Z,93.63
2022-09-10T08:53:38.333Z,93.33
2022-09-10T08:56:40.930Z,93.52
2022-09-10T08:59:44.677Z,93.62
2022-09-10T09:02:52.756Z,93.34
2022-09-10T09:05:58.245Z,93.16
2022-09-10T09:09:01.262Z,93.05
2022-09-10T09:12:06.100Z,92.86
2022-09-10T09:15:11.004Z,92.88
2022-09-10T09:18:18.104Z,93.00
2022-09-10T09:21:24.795Z,93.40
2022-09-10T09:24:29.334Z,93.77
2022-09-10T09:27:34.216Z,94.78
2022-09-10T09:30:37.896Z,95.65
2022-09-10T09:33:40.641Z,96.65
2022-09-10T09:36:51.028Z,97.62
2022-09-10T09:40:04.253Z,98.47
2022-09-10T09:43:13.505Z,99.20
2022-09-10T09:46:17.080Z,99.95
2022-09-10T09:49:18.843Z,100.00
2022-09-10T09:52:22.955Z,100.00
2022-09-10T09:55:28.932Z,100.00
2022-09-10T09:58:32.654Z,100.00
2022-09-10T10:01:37.399Z,100.00
2022-09-10T10:04:42.344Z,100.00
2022-09-10T10:07:48.246Z,100.00
2022-09-10T10:10:52.231Z,100.00
2022-09-10T10:13:56.838Z,100.00
2022-09-10T10:17:00.877Z,100.00
2022-09-10T10:20:05.610Z,100.00
2022-09-10T10:23:31.078Z,100.00
2022-09-10T10:26:33.787Z,100.00
2022-09-10T10:29:35.612Z,100.00
2022-09-10T10:32:42.507Z,100.00
2022-09-10T10:35:46.913Z,100.00
2022-09-10T10:38:52.870Z,100.00
2022-09-10T10:42:04.449Z,100.00
2022-09-10T10:45:17.509Z,100.00
2022-09-10T10:48:26.531Z,100.00
2022-09-10T10:51:33.439Z,100.00
2022-09-10T10:54:42.714Z,100.00
2022-09-10T10:57:53.739Z,100.00
2022-09-10T11:00:58.240Z,100.00
2022-09-10T11:04:04.164Z,100.00
2022-09-10T11:07:10.104Z,99.80
2022-09-10T11:10:16.447Z,98.44
2022-09-10T11:13:19.829Z,97.06
2022-09-10T11:16:24.199Z,95.27
2022-09-10T11:19:35.785Z,95.10
2022-09-10T11:22:40.813Z,94.79
2022-09-10T11:25:54.369Z,95.26
2022-09-10T11:28:59.561Z,94.81
2022-09-10T11:32:04.830Z,95.00
2022-09-10T11:35:11.603Z,94.75
2022-09-10T11:38:20.542Z,95.15
2022-09-10T11:41:24.734Z,95.23
2022-09-10T11:44:42.957Z,94.77
2022-09-10T11:47:47.941Z,94.31
2022-09-10T11:50:52.796Z,94.44
2022-09-10T11:53:54.960Z,94.48
2022-09-10T11:57:01.220Z,94.83
2022-09-10T12:00:10.096Z,94.76
2022-09-10T12:03:27.219Z,94.33
2022-09-10T12:06:33.561Z,94.28
2022-09-10T12:09:40.546Z,95.00
2022-09-10T12:12:44.485Z,94.77
2022-09-10T12:15:50.859Z,94.45
2022-09-10T12:18:55.069Z,94.13
2022-09-10T12:21:58.834Z,94.43
2022-09-10T12:25:02.243Z,94.79
2022-09-10T12:28:25.255Z,94.87
2022-09-10T12:31:27.887Z,95.01
2022-09-10T12:34:29.661Z,94.94
2022-09-10T12:37:34.105Z,94.83
2022-09-10T12:40:49.949Z,94.65
2022-09-10T12:43:57.136Z,95.41
2022-09-10T12:47:13.664Z,95.68
2022-09-10T12:50:21.552Z,96.18
2022-09-10T12:53:44.608Z,96.80
2022-09-10T12:57:08.726Z,96.93
2022-09-10T13:00:19.725Z,96.75
2022-09-10T13:03:22.724Z,96.95
2022-09-10T13:06:34.895Z,96.99
2022-09-10T13:09:38.674Z,97.38
2022-09-10T13:12:41.998Z,98.05
2022-09-10T13:15:49.781Z,96.78
2022-09-10T13:18:56.355Z,95.83
2022-09-10T13:21:58.825Z,95.42
2022-09-10T13:25:02.375Z,95.93
2022-09-10T13:28:25.175Z,95.55
2022-09-10T13:31:31.632Z,95.96
2022-09-10T13:34:57.180Z,95.74
2022-09-10T13:38:09.119Z,95.60
2022-09-10T13:41:18.958Z,95.36
2022-09-10T13:44:27.942Z,95.49
2022-09-10T13:47:33.703Z,95.83
2022-09-10T13:50:38.149Z,95.76
2022-09-10T13:53:42.070Z,96.36
2022-09-10T13:56:45.882Z,96.09
2022-09-10T13:59:49.068Z,95.94
2022-09-10T14:02:53.650Z,95.35
2022-09-10T14:05:57.519Z,95.46
2022-09-10T14:09:06.273Z,95.89
2022-09-10T14:12:08.691Z,95.20
2022-09-10T14:15:17.480Z,95.07
2022-09-10T14:18:21.488Z,95.23
2022-09-10T14:21:27.129Z,94.65
2022-09-10T14:24:30.656Z,94.89
2022-09-10T14:27:33.748Z,94.87
2022-09-10T14:30:36.089Z,95.24
2022-09-10T14:33:39.818Z,95.56
2022-09-10T14:36:41.511Z,95.42
2022-09-10T14:39:44.222Z,95.04
2022-09-10T14:42:46.752Z,95.10
2022-09-10T14:45:49.916Z,94.66
2022-09-10T14:49:07.545Z,94.68
2022-09-10T14:52:10.776Z,94.78
2022-09-10T14:55:12.958Z,94.77
2022-09-10T14:58:14.547Z,94.51
2022-09-10T15:01:16.273Z,93.48
2022-09-10T15:04:24.275Z,92.74
2022-09-10T15:07:27.689Z,91.76
2022-09-10T15:10:29.304Z,92.26
2022-09-10T15:13:32.358Z,91.69
2022-09-10T15:16:35.357Z,90.63
2022-09-10T15:19:38.469Z,90.88
2022-09-10T15:22:40.382Z,91.29
2022-09-10T15:25:48.284Z,91.11
2022-09-10T15:28:50.026Z,91.38
2022-09-10T15:31:51.862Z,91.23
2022-09-10T15:34:55.210Z,91.03
2022-09-10T15:37:57.774Z,91.28
2022-09-10T15:41:06.991Z,90.80
2022-09-10T15:44:08.929Z,90.37
2022-09-10T15:47:10.711Z,90.61
2022-09-10T15:50:15.982Z,90.33
2022-09-10T15:53:17.839Z,89.69
2022-09-10T15:56:20.763Z,88.64
2022-09-10T15:59:23.594Z,88.48
2022-09-10T16:02:26.697Z,88.56
2022-09-10T16:05:30.993Z,88.79
2022-09-10T16:08:32.979Z,88.72
2022-09-10T16:11:36.374Z,88.83
2022-09-10T16:14:38.046Z,88.72
2022-09-10T16:17:41.033Z,88.59
2022-09-10T16:20:44.303Z,88.86
2022-09-10T16:23:46.933Z,89.20
2022-09-10T16:26:49.599Z,89.43
2022-09-10T16:29:51.442Z,89.40
2022-09-10T16:32:55.159Z,88.95
2022-09-10T16:36:03.178Z,89.08
2022-09-10T16:39:07.208Z,88.59
2022-09-10T16:42:11.802Z,88.57
2022-09-10T16:45:15.459Z,88.60
2022-09-10T16:48:17.478Z,88.80
2022-09-10T16:51:23.569Z,88.83
2022-09-10T16:54:27.787Z,88.80
2022-09-10T16:57:30.228Z,88.55
2022-09-10T17:00:32.173Z,88.41
2022-09-10T17:03:34.118Z,88.23
2022-09-10T17:06:37.255Z,88.24
2022-09-10T17:09:38.805Z,88.25
2022-09-10T17:12:40.671Z,88.09
2022-09-10T17:15:43.273Z,88.30
2022-09-10T17:18:45.184Z,88.51
2022-09-10T17:21:51.395Z,88.88
2022-09-10T17:24:53.973Z,89.14
2022-09-10T17:27:59.465Z,89.62
2022-09-10T17:31:01.296Z,89.82
2022-09-10T17:34:03.810Z,90.19
2022-09-10T17:37:06.814Z,90.47
2022-09-10T17:40:08.926Z,90.47
2022-09-10T17:43:10.612Z,90.82
2022-09-10T17:46:15.265Z,90.69
2022-09-10T17:49:17.248Z,91.09
2022-09-10T17:52:21.977Z,91.29
2022-09-10T17:55:24.673Z,91.46
2022-09-10T17:58:27.734Z,91.59
2022-09-10T18:01:30.679Z,91.96
2022-09-10T18:04:34.702Z,91.69
2022-09-10T18:07:37.854Z,91.46
2022-09-10T18:10:39.566Z,91.62
2022-09-10T18:13:41.184Z,91.90
2022-09-10T18:16:42.910Z,92.28
2022-09-10T18:19:44.594Z,92.07
2022-09-10T18:22:47.691Z,91.47
2022-09-10T18:25:50.078Z,91.27
2022-09-10T18:28:52.983Z,91.31
2022-09-10T18:31:56.057Z,91.92
2022-09-10T18:34:57.830Z,92.59
2022-09-10T18:38:03.151Z,92.36
2022-09-10T18:41:05.016Z,92.33
2022-09-10T18:44:08.093Z,92.57
2022-09-10T18:47:27.857Z,92.66
2022-09-10T18:50:32.799Z,91.98
2022-09-10T18:53:36.087Z,92.02
2022-09-10T18:56:37.920Z,92.43
2022-09-10T18:59:39.527Z,92.26
2022-09-10T19:02:41.340Z,92.32
2022-09-10T19:05:43.295Z,92.41
2022-09-10T19:08:50.526Z,92.50
2022-09-10T19:11:54.126Z,92.84
2022-09-10T19:14:55.689Z,93.15
2022-09-10T19:17:57.297Z,93.62
2022-09-10T19:21:02.455Z,93.64
2022-09-10T19:24:06.814Z,94.00
2022-09-10T19:27:08.391Z,93.99
2022-09-10T19:30:10.814Z,94.27
2022-09-10T19:33:12.832Z,94.26
2022-09-10T19:36:16.468Z,93.81
2022-09-10T19:39:19.443Z,93.58
2022-09-10T19:42:21.194Z,93.46
2022-09-10T19:45:27.371Z,93.04
2022-09-10T19:48:29.267Z,93.01
2022-09-10T19:51:32.371Z,92.91
2022-09-10T19:54:39.954Z,93.17
2022-09-10T19:57:41.726Z,93.43
2022-09-10T20:00:47.082Z,93.38
2022-09-10T20:03:50.612Z,93.59
2022-09-10T20:06:52.438Z,93.49
2022-09-10T20:09:55.789Z,93.78
2022-09-10T20:12:57.511Z,93.69
2022-09-10T20:15:59.875Z,94.08
2022-09-10T20:19:02.857Z,94.42
2022-09-10T20:22:04.780Z,94.51
2022-09-10T20:25:08.089Z,94.82
2022-09-10T20:28:09.574Z,94.93
2022-09-10T20:31:12.410Z,95.14
2022-09-10T20:34:14.997Z,95.35
2022-09-10T20:37:16.989Z,95.51
2022-09-10T20:40:20.385Z,95.79
2022-09-10T20:43:21.915Z,95.82
2022-09-10T20:46:23.732Z,96.05
2022-09-10T20:49:25.611Z,96.10
2022-09-10T20:52:27.273Z,96.42
2022-09-10T20:55:30.515Z,96.55
2022-09-10T20:58:34.368Z,96.90
2022-09-10T21:01:36.217Z,96.91
2022-09-10T21:04:39.778Z,96.91
2022-09-10T21:07:41.480Z,96.90
2022-09-10T21:10:44.605Z,96.86
2022-09-10T21:13:47.101Z,96.86
2022-09-10T21:16:48.654Z,97.00
2022-09-10T21:19:51.630Z,97.01
2022-09-10T21:22:53.201Z,96.89
2022-09-10T21:25:56.250Z,97.00
2022-09-10T21:28:58.870Z,97.03
2022-09-10T21:32:00.551Z,97.07
2022-09-10T21:35:02.115Z,97.32
2022-09-10T21:38:03.860Z,97.45
2022-09-10T21:41:12.417Z,97.81
2022-09-10T21:44:15.064Z,97.64
2022-09-10T21:47:16.867Z,97.66
2022-09-10T21:50:18.560Z,97.86
2022-09-10T21:53:20.808Z,97.76
2022-09-10T21:56:24.982Z,97.78
2022-09-10T21:59:26.808Z,97.69
2022-09-10T22:02:30.676Z,98.03
2022-09-10T22:05:32.466Z,98.01
2022-09-10T22:08:34.124Z,98.20
2022-09-10T22:11:38.555Z,98.13
2022-09-10T22:14:44.206Z,98.38
2022-09-10T22:17:45.750Z,98.58
2022-09-10T22:20:47.314Z,98.47
2022-09-10T22:23:51.659Z,98.31
2022-09-10T22:26:54.769Z,98.42
2022-09-10T22:29:56.871Z,98.49
2022-09-10T22:32:58.737Z,98.71
2022-09-10T22:36:08.045Z,98.80
2022-09-10T22:39:12.112Z,98.72
2022-09-10T22:42:15.314Z,98.77
2022-09-10T22:45:17.801Z,99.01
2022-09-10T22:48:19.502Z,98.96
2022-09-10T22:51:23.226Z,98.88
2022-09-10T22:54:24.857Z,98.88
2022-09-10T22:57:28.684Z,99.00
2022-09-10T23:00:30.320Z,99.28
2022-09-10T23:03:32.634Z,99.28
2022-09-10T23:06:37.533Z,99.42
2022-09-10T23:09:39.155Z,99.64
2022-09-10T23:12:45.094Z,99.79
2022-09-10T23:15:47.073Z,99.80
2022-09-10T23:18:50.700Z,99.84
2022-09-10T23:21:54.022Z,99.91
2022-09-10T23:24:55.727Z,100.00
2022-09-10T23:27:58.990Z,100.00
2022-09-10T23:31:14.471Z,99.80
2022-09-10T23:34:17.072Z,100.00
2022-09-10T23:37:19.773Z,100.00
2022-09-10T23:40:27.212Z,100.00
2022-09-10T23:43:32.475Z,100.00
2022-09-10T23:46:34.555Z,100.00
2022-09-10T23:49:36.241Z,100.00
2022-09-10T23:52:37.737Z,100.00
2022-09-10T23:55:40.202Z,100.00
2022-09-10T23:58:43.302Z,100.00
